sensor_id;sensor_type;location;lat;lon;timestamp;P1;durP1;ratioP1;P2;durP2;ratioP2
74483;SDS011;62942;52.462;10.846;2023-09-07T00:01:05;6.6;;;8.2;;
74483;SDS011;62942;52.462;10.846;2023-09-07T00:02:12;6.8;;;10.2;;
74483;SDS011;62942;52.462;10.846;2023-09-07T00:03:22;6.5;;;12.2;;
74483;SDS011;62942;52.462;10.846;2023-09-07T00:04:32;6.6;;;10.6;;
74483;SDS011;62942;52.462;10.846;2023-09-07T00:05:42;6.2;;;7.7;;
74483;SDS011;62942;52.462;10.846;2023-09-07T00:06:42;6.6;;;10.3;;
74483;SDS011;62942;52.462;10.846;2023-09-07T00:07:52;6.6;;;9.4;;
74483;SDS011;62942;52.462;10.846;2023-09-07T00:09:03;6.6;;;8.2;;
74483;SDS011;62942;52.462;10.846;2023-09-07T00:10:12;6.6;;;8.5;;
74483;SDS011;62942;52.462;10.846;2023-09-07T00:11:22;6.5;;;8.4;;
74483;SDS011;62942;52.462;10.846;2023-09-07T00:12:22;6.6;;;10.7;;
74483;SDS011;62942;52.462;10.846;2023-09-07T00:13:33;6.4;;;8.2;;
74483;SDS011;62942;52.462;10.846;2023-09-07T00:14:42;6.3;;;8.2;;
74483;SDS011;62942;52.462;10.846;2023-09-07T00:15:42;6.8;;;8.5;;
74483;SDS011;62942;52.462;10.846;2023-09-07T00:16:42;6.7;;;8.8;;
74483;SDS011;62942;52.462;10.846;2023-09-07T00:17:52;6.8;;;9.7;;
74483;SDS011;62942;52.462;10.846;2023-09-07T00:19:02;6.9;;;12;;
74483;SDS011;62942;52.462;10.846;2023-09-07T00:20:03;6.5;;;8.6;;
74483;SDS011;62942;52.462;10.846;2023-09-07T00:21:02;6.7;;;10.4;;
74483;SDS011;62942;52.462;10.846;2023-09-07T00:22:03;6.8;;;8.1;;
74483;SDS011;62942;52.462;10.846;2023-09-07T00:23:13;7.1;;;11.4;;
74483;SDS011;62942;52.462;10.846;2023-09-07T00:24:22;6.8;;;10.2;;
74483;SDS011;62942;52.462;10.846;2023-09-07T00:25:22;7;;;10.9;;
74483;SDS011;62942;52.462;10.846;2023-09-07T00:26:22;6.8;;;9.1;;
74483;SDS011;62942;52.462;10.846;2023-09-07T00:27:22;6.6;;;8.8;;
74483;SDS011;62942;52.462;10.846;2023-09-07T00:28:32;6.8;;;9.4;;
74483;SDS011;62942;52.462;10.846;2023-09-07T00:29:32;6.9;;;8.7;;
74483;SDS011;62942;52.462;10.846;2023-09-07T00:30:32;6.9;;;9;;
74483;SDS011;62942;52.462;10.846;2023-09-07T00:31:42;7.6;;;10.7;;
74483;SDS011;62942;52.462;10.846;2023-09-07T00:32:42;6.9;;;9.6;;
74483;SDS011;62942;52.462;10.846;2023-09-07T00:33:52;7.4;;;10.8;;
74483;SDS011;62942;52.462;10.846;2023-09-07T00:35:03;7.1;;;10;;
74483;SDS011;62942;52.462;10.846;2023-09-07T00:36:02;7.1;;;9.6;;
74483;SDS011;62942;52.462;10.846;2023-09-07T00:37:12;7.3;;;9.7;;
74483;SDS011;62942;52.462;10.846;2023-09-07T00:38:22;7.1;;;9;;
74483;SDS011;62942;52.462;10.846;2023-09-07T00:39:32;7.2;;;9.8;;
74483;SDS011;62942;52.462;10.846;2023-09-07T00:40:32;7.2;;;9.9;;
74483;SDS011;62942;52.462;10.846;2023-09-07T00:41:42;7.7;;;10;;
74483;SDS011;62942;52.462;10.846;2023-09-07T00:42:53;7.4;;;9.1;;
74483;SDS011;62942;52.462;10.846;2023-09-07T00:44:02;7.2;;;9.6;;
74483;SDS011;62942;52.462;10.846;2023-09-07T00:45:03;7.4;;;10.4;;
74483;SDS011;62942;52.462;10.846;2023-09-07T00:46:12;7.3;;;9.5;;
74483;SDS011;62942;52.462;10.846;2023-09-07T00:47:22;7.3;;;9.9;;
74483;SDS011;62942;52.462;10.846;2023-09-07T00:48:32;7.3;;;10.8;;
74483;SDS011;62942;52.462;10.846;2023-09-07T00:49:32;7.1;;;9.7;;
74483;SDS011;62942;52.462;10.846;2023-09-07T00:50:32;7.3;;;9;;
74483;SDS011;62942;52.462;10.846;2023-09-07T00:51:42;7.4;;;11.7;;
74483;SDS011;62942;52.462;10.846;2023-09-07T00:52:52;7.3;;;9.5;;
74483;SDS011;62942;52.462;10.846;2023-09-07T00:53:52;7.2;;;13.2;;
74483;SDS011;62942;52.462;10.846;2023-09-07T00:54:52;7.4;;;9.9;;
74483;SDS011;62942;52.462;10.846;2023-09-07T00:55:53;7.2;;;9.7;;
74483;SDS011;62942;52.462;10.846;2023-09-07T00:56:52;7.3;;;10.1;;
74483;SDS011;62942;52.462;10.846;2023-09-07T00:58:03;7.6;;;10.6;;
74483;SDS011;62942;52.462;10.846;2023-09-07T00:59:02;7.2;;;10;;
74483;SDS011;62942;52.462;10.846;2023-09-07T01:00:03;7.2;;;10.8;;
74483;SDS011;62942;52.462;10.846;2023-09-07T01:01:02;7.2;;;9.8;;
74483;SDS011;62942;52.462;10.846;2023-09-07T01:02:12;7.1;;;10.7;;
74483;SDS011;62942;52.462;10.846;2023-09-07T01:03:12;7;;;10.9;;
74483;SDS011;62942;52.462;10.846;2023-09-07T01:04:22;7.3;;;8.6;;
74483;SDS011;62942;52.462;10.846;2023-09-07T01:05:34;6.9;;;9.9;;
74483;SDS011;62942;52.462;10.846;2023-09-07T01:06:43;7.4;;;11.1;;
74483;SDS011;62942;52.462;10.846;2023-09-07T01:07:54;7.1;;;9.5;;
74483;SDS011;62942;52.462;10.846;2023-09-07T01:08:54;7.1;;;9.6;;
74483;SDS011;62942;52.462;10.846;2023-09-07T01:10:03;6.9;;;10.3;;
74483;SDS011;62942;52.462;10.846;2023-09-07T01:11:12;7.2;;;9.1;;
74483;SDS011;62942;52.462;10.846;2023-09-07T01:12:14;7.3;;;9.8;;
74483;SDS011;62942;52.462;10.846;2023-09-07T01:13:22;7.3;;;10.9;;
74483;SDS011;62942;52.462;10.846;2023-09-07T01:14:32;7.1;;;10.1;;
74483;SDS011;62942;52.462;10.846;2023-09-07T01:15:32;7.1;;;10.6;;
74483;SDS011;62942;52.462;10.846;2023-09-07T01:16:32;7.6;;;12;;
74483;SDS011;62942;52.462;10.846;2023-09-07T01:17:42;7.5;;;10.5;;
74483;SDS011;62942;52.462;10.846;2023-09-07T01:18:52;7.4;;;10.4;;
74483;SDS011;62942;52.462;10.846;2023-09-07T01:20:03;7.6;;;10.5;;
74483;SDS011;62942;52.462;10.846;2023-09-07T01:21:02;7.4;;;10.5;;
74483;SDS011;62942;52.462;10.846;2023-09-07T01:22:12;7.7;;;9.6;;
74483;SDS011;62942;52.462;10.846;2023-09-07T01:23:22;7.4;;;10.3;;
74483;SDS011;62942;52.462;10.846;2023-09-07T01:24:22;7.5;;;10;;
74483;SDS011;62942;52.462;10.846;2023-09-07T01:25:32;7.4;;;10.3;;
74483;SDS011;62942;52.462;10.846;2023-09-07T01:26:32;7.5;;;9.5;;
74483;SDS011;62942;52.462;10.846;2023-09-07T01:27:32;7.8;;;10.4;;
74483;SDS011;62942;52.462;10.846;2023-09-07T01:28:42;7.5;;;11.3;;
74483;SDS011;62942;52.462;10.846;2023-09-07T01:29:52;7.4;;;8.7;;
74483;SDS011;62942;52.462;10.846;2023-09-07T01:30:52;7.8;;;9.8;;
74483;SDS011;62942;52.462;10.846;2023-09-07T01:32:02;7.5;;;9.6;;
74483;SDS011;62942;52.462;10.846;2023-09-07T01:33:03;7.7;;;12;;
74483;SDS011;62942;52.462;10.846;2023-09-07T01:34:02;7.4;;;10.6;;
74483;SDS011;62942;52.462;10.846;2023-09-07T01:35:12;7.5;;;9.6;;
74483;SDS011;62942;52.462;10.846;2023-09-07T01:36:22;7.2;;;8.8;;
74483;SDS011;62942;52.462;10.846;2023-09-07T01:37:32;7.8;;;10.3;;
74483;SDS011;62942;52.462;10.846;2023-09-07T01:38:32;8.1;;;9.6;;
74483;SDS011;62942;52.462;10.846;2023-09-07T01:39:42;8;;;9.9;;
74483;SDS011;62942;52.462;10.846;2023-09-07T01:40:42;8.6;;;12.2;;
74483;SDS011;62942;52.462;10.846;2023-09-07T01:41:52;8.4;;;10.2;;
74483;SDS011;62942;52.462;10.846;2023-09-07T01:43:02;8.5;;;11.4;;
74483;SDS011;62942;52.462;10.846;2023-09-07T01:44:12;8.3;;;10.4;;
74483;SDS011;62942;52.462;10.846;2023-09-07T01:45:12;8.2;;;11.3;;
74483;SDS011;62942;52.462;10.846;2023-09-07T01:46:12;8.3;;;10.2;;
74483;SDS011;62942;52.462;10.846;2023-09-07T01:47:22;8.5;;;9.7;;
74483;SDS011;62942;52.462;10.846;2023-09-07T01:48:32;8.5;;;11.3;;
74483;SDS011;62942;52.462;10.846;2023-09-07T01:49:42;8;;;11.6;;
74483;SDS011;62942;52.462;10.846;2023-09-07T01:50:42;8.5;;;11.1;;
74483;SDS011;62942;52.462;10.846;2023-09-07T01:51:52;8.4;;;11;;
74483;SDS011;62942;52.462;10.846;2023-09-07T01:53:02;8.3;;;16.5;;
74483;SDS011;62942;52.462;10.846;2023-09-07T01:54:02;8.4;;;10.6;;
74483;SDS011;62942;52.462;10.846;2023-09-07T01:55:12;8.7;;;12.6;;
74483;SDS011;62942;52.462;10.846;2023-09-07T01:56:22;8.6;;;11.6;;
74483;SDS011;62942;52.462;10.846;2023-09-07T01:57:22;8.4;;;10.7;;
74483;SDS011;62942;52.462;10.846;2023-09-07T01:58:32;8.4;;;11.4;;
74483;SDS011;62942;52.462;10.846;2023-09-07T01:59:42;8.4;;;13.1;;
74483;SDS011;62942;52.462;10.846;2023-09-07T02:00:53;8.6;;;10.6;;
74483;SDS011;62942;52.462;10.846;2023-09-07T02:02:02;8.4;;;11.4;;
74483;SDS011;62942;52.462;10.846;2023-09-07T02:03:02;8.8;;;10.8;;
74483;SDS011;62942;52.462;10.846;2023-09-07T02:04:12;8.6;;;11.3;;
74483;SDS011;62942;52.462;10.846;2023-09-07T02:05:12;8.9;;;11.1;;
74483;SDS011;62942;52.462;10.846;2023-09-07T02:06:12;8.8;;;11.2;;
74483;SDS011;62942;52.462;10.846;2023-09-07T02:07:22;8.3;;;9.8;;
74483;SDS011;62942;52.462;10.846;2023-09-07T02:08:32;8.5;;;11;;
74483;SDS011;62942;52.462;10.846;2023-09-07T02:09:42;8.7;;;10.4;;
74483;SDS011;62942;52.462;10.846;2023-09-07T02:10:52;8.4;;;10.6;;
74483;SDS011;62942;52.462;10.846;2023-09-07T02:11:52;8.7;;;10.4;;
74483;SDS011;62942;52.462;10.846;2023-09-07T02:13:02;8.2;;;11.6;;
74483;SDS011;62942;52.462;10.846;2023-09-07T02:14:02;8.6;;;11.1;;
74483;SDS011;62942;52.462;10.846;2023-09-07T02:15:03;8.4;;;10.7;;
74483;SDS011;62942;52.462;10.846;2023-09-07T02:16:03;8.1;;;11.3;;
74483;SDS011;62942;52.462;10.846;2023-09-07T02:17:12;8.6;;;10.9;;
74483;SDS011;62942;52.462;10.846;2023-09-07T02:18:22;8.4;;;10;;
74483;SDS011;62942;52.462;10.846;2023-09-07T02:19:32;8.1;;;9.6;;
74483;SDS011;62942;52.462;10.846;2023-09-07T02:20:42;8.2;;;11;;
74483;SDS011;62942;52.462;10.846;2023-09-07T02:21:42;8.3;;;11.1;;
74483;SDS011;62942;52.462;10.846;2023-09-07T02:22:52;8.3;;;10.9;;
74483;SDS011;62942;52.462;10.846;2023-09-07T02:24:02;8.5;;;10;;
74483;SDS011;62942;52.462;10.846;2023-09-07T02:25:12;8.3;;;10.7;;
74483;SDS011;62942;52.462;10.846;2023-09-07T02:26:22;8.1;;;9.7;;
74483;SDS011;62942;52.462;10.846;2023-09-07T02:27:22;8.5;;;10.5;;
74483;SDS011;62942;52.462;10.846;2023-09-07T02:28:32;8.3;;;9.9;;
74483;SDS011;62942;52.462;10.846;2023-09-07T02:29:32;8.3;;;11.2;;
74483;SDS011;62942;52.462;10.846;2023-09-07T02:30:32;8.5;;;12.4;;
74483;SDS011;62942;52.462;10.846;2023-09-07T02:31:42;8.2;;;10.9;;
74483;SDS011;62942;52.462;10.846;2023-09-07T02:32:42;8.3;;;10.2;;
74483;SDS011;62942;52.462;10.846;2023-09-07T02:33:52;8.3;;;11.5;;
74483;SDS011;62942;52.462;10.846;2023-09-07T02:35:02;8.1;;;9.4;;
74483;SDS011;62942;52.462;10.846;2023-09-07T02:36:02;8.3;;;11.5;;
74483;SDS011;62942;52.462;10.846;2023-09-07T02:37:12;8.3;;;10.4;;
74483;SDS011;62942;52.462;10.846;2023-09-07T02:38:22;8.4;;;10.6;;
74483;SDS011;62942;52.462;10.846;2023-09-07T02:39:22;8.1;;;10.2;;
74483;SDS011;62942;52.462;10.846;2023-09-07T02:40:32;8.2;;;11.3;;
74483;SDS011;62942;52.462;10.846;2023-09-07T02:41:32;9;;;11.1;;
74483;SDS011;62942;52.462;10.846;2023-09-07T02:42:42;8.3;;;9.5;;
74483;SDS011;62942;52.462;10.846;2023-09-07T02:43:42;8.8;;;10.3;;
74483;SDS011;62942;52.462;10.846;2023-09-07T02:44:52;8.4;;;9.8;;
74483;SDS011;62942;52.462;10.846;2023-09-07T02:45:53;8.9;;;11.6;;
74483;SDS011;62942;52.462;10.846;2023-09-07T02:47:02;8.3;;;12.1;;
74483;SDS011;62942;52.462;10.846;2023-09-07T02:48:02;8.4;;;9.8;;
74483;SDS011;62942;52.462;10.846;2023-09-07T02:49:02;8.6;;;11.9;;
74483;SDS011;62942;52.462;10.846;2023-09-07T02:50:12;8.9;;;11;;
74483;SDS011;62942;52.462;10.846;2023-09-07T02:51:22;8.8;;;11.7;;
74483;SDS011;62942;52.462;10.846;2023-09-07T02:52:22;8.4;;;9.9;;
74483;SDS011;62942;52.462;10.846;2023-09-07T02:53:32;8.3;;;11.6;;
74483;SDS011;62942;52.462;10.846;2023-09-07T02:54:42;8.5;;;10.7;;
74483;SDS011;62942;52.462;10.846;2023-09-07T02:55:52;8.6;;;11;;
74483;SDS011;62942;52.462;10.846;2023-09-07T02:57:02;8.2;;;9.5;;
74483;SDS011;62942;52.462;10.846;2023-09-07T02:58:12;8.3;;;12.5;;
74483;SDS011;62942;52.462;10.846;2023-09-07T02:59:22;8.3;;;10.3;;
74483;SDS011;62942;52.462;10.846;2023-09-07T03:00:22;8.5;;;12.4;;
74483;SDS011;62942;52.462;10.846;2023-09-07T03:01:32;8.8;;;10.4;;
74483;SDS011;62942;52.462;10.846;2023-09-07T03:02:32;8.3;;;10.2;;
74483;SDS011;62942;52.462;10.846;2023-09-07T03:03:42;8.8;;;10.9;;
74483;SDS011;62942;52.462;10.846;2023-09-07T03:04:42;8.1;;;9.9;;
74483;SDS011;62942;52.462;10.846;2023-09-07T03:05:43;7.9;;;10;;
74483;SDS011;62942;52.462;10.846;2023-09-07T03:06:52;8.2;;;9.9;;
74483;SDS011;62942;52.462;10.846;2023-09-07T03:08:03;8.3;;;9.6;;
74483;SDS011;62942;52.462;10.846;2023-09-07T03:09:02;8.5;;;10.9;;
74483;SDS011;62942;52.462;10.846;2023-09-07T03:10:12;8.2;;;9.6;;
74483;SDS011;62942;52.462;10.846;2023-09-07T03:11:22;8.2;;;11;;
74483;SDS011;62942;52.462;10.846;2023-09-07T03:12:33;8.2;;;10;;
74483;SDS011;62942;52.462;10.846;2023-09-07T03:13:32;8.9;;;11.5;;
74483;SDS011;62942;52.462;10.846;2023-09-07T03:14:32;8.3;;;11;;
74483;SDS011;62942;52.462;10.846;2023-09-07T03:15:32;8.2;;;10.4;;
74483;SDS011;62942;52.462;10.846;2023-09-07T03:16:42;8.5;;;10.2;;
74483;SDS011;62942;52.462;10.846;2023-09-07T03:17:42;8.6;;;14.2;;
74483;SDS011;62942;52.462;10.846;2023-09-07T03:18:52;8.2;;;10.1;;
74483;SDS011;62942;52.462;10.846;2023-09-07T03:19:52;8.1;;;9.4;;
74483;SDS011;62942;52.462;10.846;2023-09-07T03:21:02;8.6;;;11.6;;
74483;SDS011;62942;52.462;10.846;2023-09-07T03:22:12;8.6;;;9.9;;
74483;SDS011;62942;52.462;10.846;2023-09-07T03:23:22;8.2;;;11;;
74483;SDS011;62942;52.462;10.846;2023-09-07T03:24:22;8.5;;;10.4;;
74483;SDS011;62942;52.462;10.846;2023-09-07T03:25:32;8.5;;;10.4;;
74483;SDS011;62942;52.462;10.846;2023-09-07T03:26:42;8.4;;;10;;
74483;SDS011;62942;52.462;10.846;2023-09-07T03:27:42;8.4;;;9.5;;
74483;SDS011;62942;52.462;10.846;2023-09-07T03:28:52;8.3;;;10.4;;
74483;SDS011;62942;52.462;10.846;2023-09-07T03:29:52;8.2;;;12;;
74483;SDS011;62942;52.462;10.846;2023-09-07T03:31:02;8.7;;;10.2;;
74483;SDS011;62942;52.462;10.846;2023-09-07T03:32:02;8.4;;;12.6;;
74483;SDS011;62942;52.462;10.846;2023-09-07T03:33:12;8.2;;;10.6;;
74483;SDS011;62942;52.462;10.846;2023-09-07T03:34:22;8.5;;;10.6;;
74483;SDS011;62942;52.462;10.846;2023-09-07T03:35:22;8.1;;;10.4;;
74483;SDS011;62942;52.462;10.846;2023-09-07T03:36:32;8.4;;;12;;
74483;SDS011;62942;52.462;10.846;2023-09-07T03:37:42;8.5;;;12.9;;
74483;SDS011;62942;52.462;10.846;2023-09-07T03:38:52;8.4;;;11.2;;
74483;SDS011;62942;52.462;10.846;2023-09-07T03:40:02;8.4;;;10.2;;
74483;SDS011;62942;52.462;10.846;2023-09-07T03:41:02;8.5;;;10.4;;
74483;SDS011;62942;52.462;10.846;2023-09-07T03:42:12;8.4;;;10.9;;
74483;SDS011;62942;52.462;10.846;2023-09-07T03:43:12;8.3;;;10.2;;
74483;SDS011;62942;52.462;10.846;2023-09-07T03:44:12;8.4;;;10.7;;
74483;SDS011;62942;52.462;10.846;2023-09-07T03:45:22;8.5;;;11.6;;
74483;SDS011;62942;52.462;10.846;2023-09-07T03:46:32;8.6;;;11.4;;
74483;SDS011;62942;52.462;10.846;2023-09-07T03:47:42;8.3;;;10.4;;
74483;SDS011;62942;52.462;10.846;2023-09-07T03:48:42;8.6;;;10.5;;
74483;SDS011;62942;52.462;10.846;2023-09-07T03:49:52;8.6;;;10.7;;
74483;SDS011;62942;52.462;10.846;2023-09-07T03:50:52;8.3;;;11.2;;
74483;SDS011;62942;52.462;10.846;2023-09-07T03:52:02;8.4;;;9.8;;
74483;SDS011;62942;52.462;10.846;2023-09-07T03:53:02;8.8;;;10;;
74483;SDS011;62942;52.462;10.846;2023-09-07T03:54:12;8.4;;;10.6;;
74483;SDS011;62942;52.462;10.846;2023-09-07T03:55:22;9;;;13.4;;
74483;SDS011;62942;52.462;10.846;2023-09-07T03:56:22;8.6;;;10.3;;
74483;SDS011;62942;52.462;10.846;2023-09-07T03:57:32;8.6;;;10.1;;
74483;SDS011;62942;52.462;10.846;2023-09-07T03:58:42;8.3;;;10.3;;
74483;SDS011;62942;52.462;10.846;2023-09-07T03:59:42;8.7;;;11.4;;
74483;SDS011;62942;52.462;10.846;2023-09-07T04:00:52;8.8;;;10.5;;
74483;SDS011;62942;52.462;10.846;2023-09-07T04:01:52;8.8;;;10.2;;
74483;SDS011;62942;52.462;10.846;2023-09-07T04:03:02;8.6;;;9.6;;
74483;SDS011;62942;52.462;10.846;2023-09-07T04:04:02;8.9;;;11.8;;
74483;SDS011;62942;52.462;10.846;2023-09-07T04:05:12;8.6;;;10.8;;
74483;SDS011;62942;52.462;10.846;2023-09-07T04:06:12;9.1;;;11.3;;
74483;SDS011;62942;52.462;10.846;2023-09-07T04:07:22;8.8;;;10.9;;
74483;SDS011;62942;52.462;10.846;2023-09-07T04:08:22;9.1;;;11;;
74483;SDS011;62942;52.462;10.846;2023-09-07T04:09:32;8.9;;;11;;
74483;SDS011;62942;52.462;10.846;2023-09-07T04:10:42;9.4;;;11.3;;
74483;SDS011;62942;52.462;10.846;2023-09-07T04:11:42;8.8;;;11;;
74483;SDS011;62942;52.462;10.846;2023-09-07T04:12:52;9.3;;;10.7;;
74483;SDS011;62942;52.462;10.846;2023-09-07T04:14:02;9.5;;;11.3;;
74483;SDS011;62942;52.462;10.846;2023-09-07T04:15:12;8.9;;;10.5;;
74483;SDS011;62942;52.462;10.846;2023-09-07T04:16:12;9.3;;;11;;
74483;SDS011;62942;52.462;10.846;2023-09-07T04:17:22;10.1;;;12.1;;
74483;SDS011;62942;52.462;10.846;2023-09-07T04:18:22;9.9;;;11.8;;
74483;SDS011;62942;52.462;10.846;2023-09-07T04:19:22;10.3;;;12.6;;
74483;SDS011;62942;52.462;10.846;2023-09-07T04:20:32;9.9;;;11.6;;
74483;SDS011;62942;52.462;10.846;2023-09-07T04:21:32;10.1;;;12.5;;
74483;SDS011;62942;52.462;10.846;2023-09-07T04:22:42;9.7;;;12.4;;
74483;SDS011;62942;52.462;10.846;2023-09-07T04:23:42;9.3;;;12.2;;
74483;SDS011;62942;52.462;10.846;2023-09-07T04:24:52;9.6;;;11.6;;
74483;SDS011;62942;52.462;10.846;2023-09-07T04:26:04;9.4;;;11.2;;
74483;SDS011;62942;52.462;10.846;2023-09-07T04:27:12;9.1;;;12.3;;
74483;SDS011;62942;52.462;10.846;2023-09-07T04:28:12;9.3;;;12.8;;
74483;SDS011;62942;52.462;10.846;2023-09-07T04:29:22;8.9;;;12.1;;
74483;SDS011;62942;52.462;10.846;2023-09-07T04:30:32;9.4;;;11.7;;
74483;SDS011;62942;52.462;10.846;2023-09-07T04:31:32;9.1;;;13.5;;
74483;SDS011;62942;52.462;10.846;2023-09-07T04:32:32;9;;;11.5;;
74483;SDS011;62942;52.462;10.846;2023-09-07T04:33:42;9;;;11.3;;
74483;SDS011;62942;52.462;10.846;2023-09-07T04:34:53;9.4;;;11.2;;
74483;SDS011;62942;52.462;10.846;2023-09-07T04:36:10;9.3;;;11.8;;
74483;SDS011;62942;52.462;10.846;2023-09-07T04:37:12;9.4;;;12;;
74483;SDS011;62942;52.462;10.846;2023-09-07T04:38:22;9.1;;;11.8;;
74483;SDS011;62942;52.462;10.846;2023-09-07T04:39:32;9.4;;;12.7;;
74483;SDS011;62942;52.462;10.846;2023-09-07T04:40:32;9.6;;;13;;
74483;SDS011;62942;52.462;10.846;2023-09-07T04:41:42;9.6;;;11.2;;
74483;SDS011;62942;52.462;10.846;2023-09-07T04:42:52;9.4;;;11.6;;
74483;SDS011;62942;52.462;10.846;2023-09-07T04:44:02;9.8;;;13.4;;
74483;SDS011;62942;52.462;10.846;2023-09-07T04:45:12;10.1;;;14.6;;
74483;SDS011;62942;52.462;10.846;2023-09-07T04:46:13;9.6;;;10.8;;
74483;SDS011;62942;52.462;10.846;2023-09-07T04:47:22;9.9;;;11.6;;
74483;SDS011;62942;52.462;10.846;2023-09-07T04:48:22;9.6;;;11.7;;
74483;SDS011;62942;52.462;10.846;2023-09-07T04:49:32;9.4;;;11.4;;
74483;SDS011;62942;52.462;10.846;2023-09-07T04:50:32;9.8;;;12.7;;
74483;SDS011;62942;52.462;10.846;2023-09-07T04:51:42;9.7;;;12.6;;
74483;SDS011;62942;52.462;10.846;2023-09-07T04:52:42;9.7;;;12.1;;
74483;SDS011;62942;52.462;10.846;2023-09-07T04:53:52;9.5;;;10.9;;
74483;SDS011;62942;52.462;10.846;2023-09-07T04:54:52;9.7;;;13.5;;
74483;SDS011;62942;52.462;10.846;2023-09-07T04:56:02;10.1;;;14;;
74483;SDS011;62942;52.462;10.846;2023-09-07T04:57:02;9.6;;;12.2;;
74483;SDS011;62942;52.462;10.846;2023-09-07T04:58:12;9.4;;;10.8;;
74483;SDS011;62942;52.462;10.846;2023-09-07T04:59:12;9.5;;;12.8;;
74483;SDS011;62942;52.462;10.846;2023-09-07T05:00:22;9.3;;;10.7;;
74483;SDS011;62942;52.462;10.846;2023-09-07T05:01:32;9.9;;;12.6;;
74483;SDS011;62942;52.462;10.846;2023-09-07T05:02:42;9.6;;;11.5;;
74483;SDS011;62942;52.462;10.846;2023-09-07T05:03:42;9.8;;;14.1;;
74483;SDS011;62942;52.462;10.846;2023-09-07T05:04:52;9.5;;;12.7;;
74483;SDS011;62942;52.462;10.846;2023-09-07T05:05:52;9.7;;;12.7;;
74483;SDS011;62942;52.462;10.846;2023-09-07T05:07:02;9.9;;;13.4;;
74483;SDS011;62942;52.462;10.846;2023-09-07T05:08:12;10.1;;;12.5;;
74483;SDS011;62942;52.462;10.846;2023-09-07T05:09:22;9.8;;;13.1;;
74483;SDS011;62942;52.462;10.846;2023-09-07T05:10:32;9.8;;;13.7;;
74483;SDS011;62942;52.462;10.846;2023-09-07T05:11:32;9.4;;;11.7;;
74483;SDS011;62942;52.462;10.846;2023-09-07T05:12:42;9.6;;;11.9;;
74483;SDS011;62942;52.462;10.846;2023-09-07T05:13:52;9.6;;;13.3;;
74483;SDS011;62942;52.462;10.846;2023-09-07T05:15:02;9.6;;;11.3;;
74483;SDS011;62942;52.462;10.846;2023-09-07T05:16:12;9.7;;;12.8;;
74483;SDS011;62942;52.462;10.846;2023-09-07T05:17:12;9.8;;;12.7;;
74483;SDS011;62942;52.462;10.846;2023-09-07T05:18:22;9.4;;;12;;
74483;SDS011;62942;52.462;10.846;2023-09-07T05:19:32;9.5;;;12.4;;
74483;SDS011;62942;52.462;10.846;2023-09-07T05:20:32;9.5;;;13.2;;
74483;SDS011;62942;52.462;10.846;2023-09-07T05:21:42;9.7;;;11.7;;
74483;SDS011;62942;52.462;10.846;2023-09-07T05:22:52;9.8;;;12.1;;
74483;SDS011;62942;52.462;10.846;2023-09-07T05:23:52;10.2;;;14.4;;
74483;SDS011;62942;52.462;10.846;2023-09-07T05:25:02;9.6;;;13.6;;
74483;SDS011;62942;52.462;10.846;2023-09-07T05:26:12;9.5;;;11.5;;
74483;SDS011;62942;52.462;10.846;2023-09-07T05:27:22;9.9;;;12.7;;
74483;SDS011;62942;52.462;10.846;2023-09-07T05:28:32;9.6;;;14.2;;
74483;SDS011;62942;52.462;10.846;2023-09-07T05:29:32;9.8;;;13.4;;
74483;SDS011;62942;52.462;10.846;2023-09-07T05:30:32;9.4;;;13.5;;
74483;SDS011;62942;52.462;10.846;2023-09-07T05:31:42;9.7;;;16;;
74483;SDS011;62942;52.462;10.846;2023-09-07T05:32:52;9.9;;;14.4;;
74483;SDS011;62942;52.462;10.846;2023-09-07T05:33:52;9.5;;;17.5;;
74483;SDS011;62942;52.462;10.846;2023-09-07T05:35:02;9.5;;;13.8;;
74483;SDS011;62942;52.462;10.846;2023-09-07T05:36:02;10.3;;;16.5;;
74483;SDS011;62942;52.462;10.846;2023-09-07T05:37:02;9.9;;;17.2;;
74483;SDS011;62942;52.462;10.846;2023-09-07T05:38:12;9.5;;;15.4;;
74483;SDS011;62942;52.462;10.846;2023-09-07T05:39:12;9.5;;;13.1;;
74483;SDS011;62942;52.462;10.846;2023-09-07T05:40:22;9.5;;;12.1;;
74483;SDS011;62942;52.462;10.846;2023-09-07T05:41:32;9.2;;;12.5;;
74483;SDS011;62942;52.462;10.846;2023-09-07T05:42:42;9.2;;;13.4;;
74483;SDS011;62942;52.462;10.846;2023-09-07T05:43:42;9.1;;;11.5;;
74483;SDS011;62942;52.462;10.846;2023-09-07T05:44:52;9;;;12.2;;
74483;SDS011;62942;52.462;10.846;2023-09-07T05:46:02;8.7;;;11.8;;
74483;SDS011;62942;52.462;10.846;2023-09-07T05:47:12;8.6;;;11.8;;
74483;SDS011;62942;52.462;10.846;2023-09-07T05:48:22;8.3;;;12.1;;
74483;SDS011;62942;52.462;10.846;2023-09-07T05:49:32;8.4;;;9.9;;
74483;SDS011;62942;52.462;10.846;2023-09-07T05:50:33;8.4;;;16.7;;
74483;SDS011;62942;52.462;10.846;2023-09-07T05:51:42;8.7;;;13.6;;
74483;SDS011;62942;52.462;10.846;2023-09-07T05:52:52;8.1;;;12.1;;
74483;SDS011;62942;52.462;10.846;2023-09-07T05:53:53;8.5;;;10.4;;
74483;SDS011;62942;52.462;10.846;2023-09-07T05:55:02;7.8;;;11.4;;
74483;SDS011;62942;52.462;10.846;2023-09-07T05:56:12;8.4;;;13.6;;
74483;SDS011;62942;52.462;10.846;2023-09-07T05:57:12;8;;;14;;
74483;SDS011;62942;52.462;10.846;2023-09-07T05:58:22;7.7;;;12.6;;
74483;SDS011;62942;52.462;10.846;2023-09-07T05:59:22;7.8;;;12.6;;
74483;SDS011;62942;52.462;10.846;2023-09-07T06:00:22;7.9;;;12.3;;
74483;SDS011;62942;52.462;10.846;2023-09-07T06:01:22;7.7;;;9.7;;
74483;SDS011;62942;52.462;10.846;2023-09-07T06:02:32;8.1;;;10.8;;
74483;SDS011;62942;52.462;10.846;2023-09-07T06:03:32;7.7;;;11.3;;
74483;SDS011;62942;52.462;10.846;2023-09-07T06:04:32;7.9;;;11.5;;
74483;SDS011;62942;52.462;10.846;2023-09-07T06:05:33;8.2;;;10.9;;
74483;SDS011;62942;52.462;10.846;2023-09-07T06:06:42;7.7;;;9.8;;
74483;SDS011;62942;52.462;10.846;2023-09-07T06:07:52;7.9;;;9.7;;
74483;SDS011;62942;52.462;10.846;2023-09-07T06:09:02;7.9;;;10.9;;
74483;SDS011;62942;52.462;10.846;2023-09-07T06:10:02;7.5;;;9.5;;
74483;SDS011;62942;52.462;10.846;2023-09-07T06:11:12;8;;;11.1;;
74483;SDS011;62942;52.462;10.846;2023-09-07T06:12:22;8.2;;;11.9;;
74483;SDS011;62942;52.462;10.846;2023-09-07T06:13:32;7.8;;;10.6;;
74483;SDS011;62942;52.462;10.846;2023-09-07T06:14:42;7.2;;;9;;
74483;SDS011;62942;52.462;10.846;2023-09-07T06:15:42;7.6;;;10.7;;
74483;SDS011;62942;52.462;10.846;2023-09-07T06:16:42;7.6;;;9.5;;
74483;SDS011;62942;52.462;10.846;2023-09-07T06:17:52;7.8;;;12.2;;
74483;SDS011;62942;52.462;10.846;2023-09-07T06:19:02;7.6;;;13.2;;
74483;SDS011;62942;52.462;10.846;2023-09-07T06:20:12;7.4;;;13.5;;
74483;SDS011;62942;52.462;10.846;2023-09-07T06:21:12;7.6;;;10;;
74483;SDS011;62942;52.462;10.846;2023-09-07T06:22:12;7.1;;;9.3;;
74483;SDS011;62942;52.462;10.846;2023-09-07T06:23:22;7.2;;;10.1;;
74483;SDS011;62942;52.462;10.846;2023-09-07T06:24:32;7.4;;;9.9;;
74483;SDS011;62942;52.462;10.846;2023-09-07T06:25:32;7.7;;;10.9;;
74483;SDS011;62942;52.462;10.846;2023-09-07T06:26:42;7.5;;;10.3;;
74483;SDS011;62942;52.462;10.846;2023-09-07T06:27:52;7.6;;;11.3;;
74483;SDS011;62942;52.462;10.846;2023-09-07T06:28:52;7.6;;;10.4;;
74483;SDS011;62942;52.462;10.846;2023-09-07T06:30:02;7.5;;;9.9;;
74483;SDS011;62942;52.462;10.846;2023-09-07T06:31:12;7.1;;;9;;
74483;SDS011;62942;52.462;10.846;2023-09-07T06:32:22;7.4;;;9.3;;
74483;SDS011;62942;52.462;10.846;2023-09-07T06:33:22;7.1;;;8.6;;
74483;SDS011;62942;52.462;10.846;2023-09-07T06:34:32;7;;;8.8;;
74483;SDS011;62942;52.462;10.846;2023-09-07T06:35:42;7.1;;;10.2;;
74483;SDS011;62942;52.462;10.846;2023-09-07T06:36:42;7.1;;;9;;
74483;SDS011;62942;52.462;10.846;2023-09-07T06:37:52;7;;;9.3;;
74483;SDS011;62942;52.462;10.846;2023-09-07T06:38:52;7.4;;;10.3;;
74483;SDS011;62942;52.462;10.846;2023-09-07T06:40:02;7.1;;;9.7;;
74483;SDS011;62942;52.462;10.846;2023-09-07T06:41:12;7;;;10.3;;
74483;SDS011;62942;52.462;10.846;2023-09-07T06:42:12;6.9;;;10.1;;